createdAt,value
2022-09-26T00:02:18.940Z,96883.97
2022-09-26T00:04:45.680Z,96880.56
2022-09-26T00:07:12.204Z,96870.25
2022-09-26T00:09:38.937Z,96873.69
2022-09-26T00:12:05.693Z,96878.00
2022-09-26T00:14:32.205Z,96865.13
2022-09-26T00:16:59.266Z,96878.00
2022-09-26T00:19:25.798Z,96867.75
2022-09-26T00:21:52.368Z,96865.16
2022-09-26T00:24:18.855Z,96859.16
2022-09-26T00:26:45.390Z,96860.03
2022-09-26T00:29:12.450Z,96858.28
2022-09-26T00:31:41.024Z,96852.28
2022-09-26T00:34:07.560Z,96843.69
2022-09-26T00:36:38.323Z,96865.13
2022-09-26T00:39:06.904Z,96853.09
2022-09-26T00:41:33.412Z,96849.66
2022-09-26T00:43:59.932Z,96845.34
2022-09-26T00:46:43.793Z,96847.97
2022-09-26T00:49:36.145Z,96842.00
2022-09-26T00:52:07.091Z,96830.81
2022-09-26T00:54:33.914Z,96844.59
2022-09-26T00:57:04.155Z,96836.88
2022-09-26T00:59:39.440Z,96826.63
2022-09-26T01:02:06.047Z,96834.34
2022-09-26T01:04:34.263Z,96823.16
2022-09-26T01:07:02.066Z,96830.91
2022-09-26T01:09:28.980Z,96816.34
2022-09-26T01:11:55.431Z,96816.34
2022-09-26T01:14:21.998Z,96812.03
2022-09-26T01:16:49.045Z,96813.75
2022-09-26T01:19:18.331Z,96819.78
2022-09-26T01:22:12.167Z,96823.22
2022-09-26T01:24:55.513Z,96821.53
2022-09-26T01:27:25.077Z,96812.09
2022-09-26T01:30:10.235Z,96812.97
2022-09-26T01:33:07.616Z,96809.53
2022-09-26T01:35:43.233Z,96813.84
2022-09-26T01:38:17.608Z,96806.16
2022-09-26T01:40:49.977Z,96808.72
2022-09-26T01:43:23.858Z,96810.41
2022-09-26T01:45:53.501Z,96815.56
2022-09-26T01:48:51.516Z,96811.31
2022-09-26T01:51:24.307Z,96812.16
2022-09-26T01:54:01.627Z,96808.75
2022-09-26T01:56:29.949Z,96805.28
2022-09-26T01:59:08.858Z,96816.44
2022-09-26T02:01:39.205Z,96812.16
2022-09-26T02:04:11.104Z,96708.06
2022-09-26T02:06:41.980Z,96815.56
2022-09-26T02:09:11.111Z,96816.41
2022-09-26T02:11:38.908Z,96798.38
2022-09-26T02:14:18.705Z,96796.66
2022-09-26T02:16:50.746Z,96808.72
2022-09-26T02:19:21.921Z,96811.25
2022-09-26T02:21:48.419Z,96803.50
2022-09-26T02:24:14.968Z,96794.91
2022-09-26T02:26:42.379Z,96807.81
2022-09-26T02:29:09.823Z,96806.09
2022-09-26T02:31:38.530Z,96786.28
2022-09-26T02:34:05.034Z,96787.22
2022-09-26T02:36:34.640Z,96804.38
2022-09-26T02:39:01.425Z,96794.94
2022-09-26T02:41:29.576Z,96808.66
2022-09-26T02:44:15.059Z,96803.53
2022-09-26T02:47:02.984Z,96790.72
2022-09-26T02:49:52.682Z,96779.44
2022-09-26T02:52:21.805Z,96785.50
2022-09-26T02:55:31.240Z,96796.69
2022-09-26T02:58:24.453Z,96792.38
2022-09-26T03:01:10.657Z,96788.97
2022-09-26T03:03:47.789Z,96778.59
2022-09-26T03:06:16.164Z,96778.59
2022-09-26T03:08:47.292Z,96774.31
2022-09-26T03:11:16.772Z,96790.72
2022-09-26T03:13:43.276Z,96774.31
2022-09-26T03:16:09.836Z,96785.53
2022-09-26T03:18:40.334Z,96777.81
2022-09-26T03:21:07.114Z,96789.88
2022-09-26T03:23:33.610Z,96791.56
2022-09-26T03:26:20.452Z,96787.31
2022-09-26T03:28:46.976Z,96788.19
2022-09-26T03:31:13.530Z,96788.22
2022-09-26T03:33:40.455Z,96783.06
2022-09-26T03:36:07.534Z,96672.97
2022-09-26T03:38:34.099Z,96775.38
2022-09-26T03:41:00.727Z,96770.22
2022-09-26T03:43:27.770Z,96775.41
2022-09-26T03:45:55.162Z,96770.25
2022-09-26T03:48:21.730Z,96740.09
2022-09-26T03:50:48.230Z,96765.13
2022-09-26T03:53:14.893Z,96763.38
2022-09-26T03:55:41.380Z,96758.25
2022-09-26T03:58:07.863Z,96763.38
2022-09-26T04:00:34.846Z,96760.81
2022-09-26T04:03:04.760Z,96756.53
2022-09-26T04:05:31.431Z,96758.22
2022-09-26T04:07:58.978Z,96758.22
2022-09-26T04:10:25.472Z,96762.53
2022-09-26T04:12:52.024Z,96758.22
2022-09-26T04:15:18.513Z,96756.50
2022-09-26T04:17:44.985Z,96755.63
2022-09-26T04:20:11.908Z,96757.38
2022-09-26T04:22:38.400Z,96752.22
2022-09-26T04:25:05.253Z,96755.63
2022-09-26T04:27:31.731Z,96750.50
2022-09-26T04:29:58.278Z,96740.94
2022-09-26T04:32:24.897Z,96742.75
2022-09-26T04:34:51.383Z,96753.94
2022-09-26T04:37:21.040Z,96759.09
2022-09-26T04:39:48.095Z,96753.94
2022-09-26T04:42:14.623Z,96753.97
2022-09-26T04:44:41.090Z,96753.09
2022-09-26T04:47:08.327Z,96754.84
2022-09-26T04:49:34.855Z,96739.41
2022-09-26T04:52:01.541Z,96732.56
2022-09-26T04:54:28.035Z,96745.44
2022-09-26T04:56:54.574Z,96747.94
2022-09-26T04:59:21.085Z,96748.84
2022-09-26T05:01:48.093Z,96745.41
2022-09-26T05:04:14.659Z,96747.19
2022-09-26T05:06:41.130Z,96746.31
2022-09-26T05:09:07.641Z,96720.47
2022-09-26T05:11:34.111Z,96745.47
2022-09-26T05:14:02.731Z,96743.75
2022-09-26T05:16:29.922Z,96744.63
2022-09-26T05:18:56.932Z,96746.31
2022-09-26T05:21:23.487Z,96745.47
2022-09-26T05:24:08.708Z,96746.31
2022-09-26T05:26:43.211Z,96754.00
2022-09-26T05:29:09.830Z,96752.28
2022-09-26T05:31:37.713Z,96755.69
2022-09-26T05:34:05.399Z,96757.41
2022-09-26T05:36:31.964Z,96762.50
2022-09-26T05:38:58.563Z,96756.50
2022-09-26T05:41:28.088Z,96758.19
2022-09-26T05:43:54.552Z,96746.22
2022-09-26T05:46:21.544Z,96729.88
2022-09-26T05:48:48.097Z,96729.94
2022-09-26T05:51:15.940Z,96727.41
2022-09-26T05:53:43.662Z,96729.97
2022-09-26T05:56:12.778Z,96733.38
2022-09-26T05:58:42.714Z,96734.25
2022-09-26T06:01:09.127Z,96734.25
2022-09-26T06:03:35.812Z,96731.69
2022-09-26T06:06:12.615Z,96736.81
2022-09-26T06:08:39.823Z,96734.19
2022-09-26T06:11:08.003Z,96736.81
2022-09-26T06:13:34.648Z,96748.78
2022-09-26T06:16:06.100Z,96741.06
2022-09-26T06:18:36.087Z,96723.13
2022-09-26T06:21:03.634Z,96727.31
2022-09-26T06:23:31.468Z,96725.69
2022-09-26T06:25:59.057Z,96731.69
2022-09-26T06:28:26.501Z,96737.66
2022-09-26T06:30:53.804Z,96735.09
2022-09-26T06:33:20.619Z,96699.00
2022-09-26T06:35:47.209Z,96735.09
2022-09-26T06:38:13.852Z,96732.44
2022-09-26T06:40:40.402Z,96725.63
2022-09-26T06:43:06.938Z,96735.97
2022-09-26T06:45:33.435Z,96739.41
2022-09-26T06:48:03.323Z,96725.63
2022-09-26T06:50:29.845Z,96733.41
2022-09-26T06:52:56.347Z,96728.28
2022-09-26T06:55:22.851Z,96716.28
2022-09-26T06:57:49.359Z,96736.00
2022-09-26T07:00:15.945Z,96726.63
2022-09-26T07:03:01.239Z,96729.13
2022-09-26T07:05:27.741Z,96728.31
2022-09-26T07:07:54.958Z,96739.44
2022-09-26T07:10:21.554Z,96729.19
2022-09-26T07:12:48.347Z,96728.28
2022-09-26T07:15:18.811Z,96732.56
2022-09-26T07:17:46.196Z,96730.88
2022-09-26T07:20:14.023Z,96727.44
2022-09-26T07:22:40.543Z,96724.88
2022-09-26T07:25:07.540Z,96721.47
2022-09-26T07:27:34.019Z,96727.38
2022-09-26T07:30:00.591Z,96724.81
2022-09-26T07:32:27.151Z,96733.41
2022-09-26T07:34:53.690Z,96729.97
2022-09-26T07:37:20.231Z,96734.28
2022-09-26T07:39:51.195Z,96737.69
2022-09-26T07:42:21.714Z,96731.66
2022-09-26T07:47:53.464Z,96733.41
2022-09-26T07:50:19.991Z,96728.28
2022-09-26T07:52:47.714Z,96721.38
2022-09-26T07:55:20.002Z,96726.56
2022-09-26T07:57:49.444Z,96727.41
2022-09-26T08:00:17.746Z,96732.53
2022-09-26T08:02:46.638Z,96735.09
2022-09-26T08:05:20.139Z,96708.44
2022-09-26T08:07:47.465Z,96729.97
2022-09-26T08:10:20.204Z,96728.25
2022-09-26T08:12:47.401Z,96737.69
2022-09-26T08:15:13.987Z,96734.28
2022-09-26T08:17:40.880Z,96730.00
2022-09-26T08:20:07.797Z,96727.44
2022-09-26T08:22:34.484Z,96724.88
2022-09-26T08:25:00.958Z,96727.44
2022-09-26T08:27:32.193Z,96719.75
2022-09-26T08:29:59.077Z,96712.06
2022-09-26T08:32:25.602Z,96724.06
2022-09-26T08:34:53.033Z,96724.88
2022-09-26T08:37:21.001Z,96714.63
2022-09-26T08:39:48.213Z,96718.94
2022-09-26T08:42:28.682Z,96715.50
2022-09-26T08:44:58.042Z,96713.81
2022-09-26T08:47:42.798Z,96712.09
2022-09-26T08:50:23.469Z,96692.41
2022-09-26T08:52:56.540Z,96682.13
2022-09-26T08:55:31.572Z,96701.00
2022-09-26T08:58:04.881Z,96701.84
2022-09-26T09:00:32.369Z,96699.28
2022-09-26T09:03:17.225Z,96698.44
2022-09-26T09:05:46.104Z,96700.13
2022-09-26T09:08:21.950Z,96696.69
2022-09-26T09:10:57.461Z,96700.09
2022-09-26T09:13:54.137Z,96688.16
2022-09-26T09:16:32.720Z,96693.28
2022-09-26T09:19:12.168Z,96694.97
2022-09-26T09:22:07.950Z,96691.53
2022-09-26T09:24:53.753Z,96691.53
2022-09-26T09:30:19.916Z,96656.38
2022-09-26T09:33:11.671Z,96670.19
2022-09-26T09:35:44.111Z,96673.59
2022-09-26T09:38:19.732Z,96662.47
2022-09-26T09:40:48.311Z,96671.88
2022-09-26T09:43:28.736Z,96665.06
2022-09-26T09:46:03.368Z,96668.44
2022-09-26T09:48:29.963Z,96675.31
2022-09-26T09:51:04.034Z,96664.19
2022-09-26T09:53:44.349Z,96662.50
2022-09-26T09:56:25.908Z,96670.19
2022-09-26T09:59:16.673Z,96666.78
2022-09-26T10:01:44.700Z,96661.66
2022-09-26T10:04:20.716Z,96653.09
2022-09-26T10:06:48.396Z,96636.75
2022-09-26T10:09:37.617Z,96643.59
2022-09-26T10:12:19.180Z,96618.78
2022-09-26T10:14:52.974Z,96647.16
2022-09-26T10:17:20.407Z,96638.56
2022-09-26T10:19:47.223Z,96646.28
2022-09-26T10:22:29.903Z,96626.59
2022-09-26T10:25:00.902Z,96648.00
2022-09-26T10:27:36.780Z,96639.47
2022-09-26T10:30:19.396Z,96634.34
2022-09-26T10:32:55.437Z,96635.19
2022-09-26T10:35:42.055Z,96616.41
2022-09-26T10:38:18.395Z,96615.53
2022-09-26T10:40:53.234Z,96624.09
2022-09-26T10:43:22.123Z,96621.53
2022-09-26T10:45:49.551Z,96611.25
2022-09-26T10:48:21.895Z,96610.38
2022-09-26T10:50:50.929Z,96608.72
2022-09-26T10:53:19.354Z,96602.72
2022-09-26T10:55:53.236Z,96598.41
2022-09-26T10:58:25.137Z,96606.97
2022-09-26T11:00:52.925Z,96596.69
2022-09-26T11:03:37.836Z,96600.13
2022-09-26T11:06:04.352Z,96601.84
2022-09-26T11:08:34.440Z,96599.25
2022-09-26T11:11:04.037Z,96597.56
2022-09-26T11:13:54.321Z,96594.13
2022-09-26T11:16:21.020Z,96591.56
2022-09-26T11:18:50.521Z,96591.56
2022-09-26T11:21:46.409Z,96589.00
2022-09-26T11:24:30.353Z,96580.44
2022-09-26T11:27:19.341Z,96581.31
2022-09-26T11:30:12.820Z,96583.88
2022-09-26T11:32:47.639Z,96558.13
2022-09-26T11:35:29.702Z,96564.22
2022-09-26T11:38:24.138Z,96565.09
2022-09-26T11:41:02.794Z,96551.41
2022-09-26T11:43:51.752Z,96552.28
2022-09-26T11:46:36.964Z,96372.94
2022-09-26T11:49:21.411Z,96547.97
2022-09-26T11:52:07.213Z,96536.88
2022-09-26T11:54:33.833Z,96542.03
2022-09-26T11:57:37.981Z,96534.34
2022-09-26T12:00:24.525Z,96528.34
2022-09-26T12:02:58.311Z,96518.97
2022-09-26T12:05:45.549Z,96517.22
2022-09-26T12:08:47.217Z,96513.84
2022-09-26T12:11:19.505Z,96496.66
2022-09-26T12:14:03.598Z,96515.56
2022-09-26T12:16:33.081Z,96504.41
2022-09-26T12:19:16.407Z,96501.03
2022-09-26T12:22:22.781Z,96495.03
2022-09-26T12:25:27.032Z,96489.06
2022-09-26T12:28:16.365Z,96481.34
2022-09-26T12:30:47.662Z,96488.22
2022-09-26T12:33:52.583Z,96476.22
2022-09-26T12:37:03.988Z,96470.25
2022-09-26T12:39:30.613Z,96467.69
2022-09-26T12:42:26.536Z,96465.13
2022-09-26T12:45:11.888Z,96460.81
2022-09-26T12:47:48.918Z,96438.56
2022-09-26T12:50:41.747Z,96450.56
2022-09-26T12:53:45.779Z,96448.00
2022-09-26T12:56:57.275Z,96448.88
2022-09-26T12:59:50.971Z,96448.88
2022-09-26T13:02:46.863Z,96436.03
2022-09-26T13:05:47.353Z,96437.75
2022-09-26T13:08:33.170Z,96428.34
2022-09-26T13:11:32.742Z,96425.78
2022-09-26T13:14:30.412Z,96426.66
2022-09-26T13:17:14.278Z,96421.53
2022-09-26T13:19:52.764Z,96410.41
2022-09-26T13:22:41.360Z,96413.84
2022-09-26T13:25:10.720Z,96412.09
2022-09-26T13:27:51.273Z,96409.53
2022-09-26T13:30:24.356Z,96415.53
2022-09-26T13:33:05.487Z,96411.28
2022-09-26T13:35:35.657Z,96399.28
2022-09-26T13:38:25.217Z,96401.84
2022-09-26T13:41:18.582Z,96383.91
2022-09-26T13:44:09.075Z,96394.16
2022-09-26T13:46:53.907Z,96400.16
2022-09-26T13:49:28.272Z,96397.59
2022-09-26T13:52:05.385Z,96385.63
2022-09-26T13:54:48.408Z,96387.34
2022-09-26T13:58:04.304Z,96382.22
2022-09-26T14:00:31.352Z,96371.97
2022-09-26T14:03:09.430Z,96360.84
2022-09-26T14:05:42.149Z,96354.88
2022-09-26T14:08:42.863Z,96354.03
2022-09-26T14:11:24.507Z,96354.88
2022-09-26T14:14:19.323Z,96350.59
2022-09-26T14:16:46.736Z,96348.88
2022-09-26T14:19:28.822Z,96339.50
2022-09-26T14:22:23.316Z,96340.34
2022-09-26T14:24:56.111Z,96342.06
2022-09-26T14:27:42.198Z,96328.38
2022-09-26T14:30:30.705Z,96329.25
2022-09-26T14:33:02.824Z,96324.94
2022-09-26T14:35:33.854Z,96328.38
2022-09-26T14:38:14.141Z,96314.69
2022-09-26T14:40:40.704Z,96310.44
2022-09-26T14:43:14.870Z,96295.84
2022-09-26T14:45:45.913Z,96293.31
2022-09-26T14:48:21.477Z,96303.59
2022-09-26T14:50:53.082Z,96294.16
2022-09-26T14:53:41.333Z,96286.44
2022-09-26T14:56:12.174Z,96300.16
2022-09-26T14:58:38.604Z,96297.59
2022-09-26T15:01:12.138Z,96296.72
2022-09-26T15:03:38.702Z,96289.03
2022-09-26T15:06:05.419Z,96271.03
2022-09-26T15:08:35.069Z,96283.91
2022-09-26T15:11:03.730Z,96284.78
2022-09-26T15:13:39.141Z,96282.22
2022-09-26T15:16:14.921Z,96295.91
2022-09-26T15:18:43.652Z,96288.22
2022-09-26T15:21:28.393Z,96289.91
2022-09-26T15:23:58.000Z,96276.22
2022-09-26T15:26:32.303Z,96272.81
2022-09-26T15:28:58.875Z,96271.09
2022-09-26T15:31:41.764Z,96280.53
2022-09-26T15:34:19.169Z,96283.09
2022-09-26T15:36:48.619Z,96265.91
2022-09-26T15:39:44.593Z,96272.84
2022-09-26T15:42:35.941Z,96277.09
2022-09-26T15:45:29.996Z,96271.97
2022-09-26T15:48:01.204Z,96264.28
2022-09-26T15:50:49.501Z,96271.97
2022-09-26T15:53:40.272Z,96260.84
2022-09-26T15:56:13.616Z,96265.97
2022-09-26T15:58:40.033Z,96266.84
2022-09-26T16:01:10.516Z,96260.00
2022-09-26T16:03:40.983Z,96265.13
2022-09-26T16:06:16.090Z,96260.84
2022-09-26T16:08:42.636Z,96256.59
2022-09-26T16:11:09.181Z,96255.72
2022-09-26T16:13:37.438Z,96241.16
2022-09-26T16:16:08.902Z,96249.75
2022-09-26T16:18:38.885Z,96254.03
2022-09-26T16:21:15.271Z,96264.28
2022-09-26T16:23:46.432Z,96258.28
2022-09-26T16:26:22.489Z,96254.88
2022-09-26T16:28:52.921Z,96239.50
2022-09-26T16:31:30.332Z,96253.16
2022-09-26T16:33:58.418Z,96251.47
2022-09-26T16:36:25.953Z,96261.72
2022-09-26T16:39:03.182Z,96258.28
2022-09-26T16:42:00.087Z,96265.97
2022-09-26T16:44:34.358Z,96260.84
2022-09-26T16:47:05.594Z,96260.00
2022-09-26T16:49:42.907Z,96261.69
2022-09-26T16:52:10.689Z,96252.28
2022-09-26T16:54:37.183Z,96264.28
2022-09-26T16:57:03.983Z,96262.56
2022-09-26T16:59:32.238Z,96265.13
2022-09-26T17:01:59.728Z,96251.41
2022-09-26T17:04:31.185Z,96263.41
2022-09-26T17:07:09.458Z,96258.28
2022-09-26T17:09:36.266Z,96254.00
2022-09-26T17:12:05.176Z,96256.59
2022-09-26T17:14:40.081Z,96242.91
2022-09-26T17:17:08.308Z,96251.44
2022-09-26T17:19:38.170Z,96254.88
2022-09-26T17:22:06.618Z,96254.00
2022-09-26T17:24:33.157Z,96259.16
2022-09-26T17:27:01.440Z,96258.28
2022-09-26T17:29:33.464Z,96247.16
2022-09-26T17:32:00.110Z,96251.41
2022-09-26T17:34:28.302Z,96246.28
2022-09-26T17:36:56.652Z,96240.31
2022-09-26T17:39:25.905Z,96249.75
2022-09-26T17:41:53.301Z,96248.88
2022-09-26T17:44:21.975Z,96257.44
2022-09-26T17:46:50.200Z,96242.84
2022-09-26T17:49:27.937Z,96241.16
2022-09-26T17:51:56.782Z,96252.31
2022-09-26T17:54:29.013Z,96261.69
2022-09-26T17:56:56.414Z,96257.44
2022-09-26T17:59:24.330Z,96256.59
2022-09-26T18:01:52.709Z,96255.72
2022-09-26T18:04:19.461Z,96257.44
2022-09-26T18:06:46.068Z,96260.00
2022-09-26T18:09:15.628Z,96243.72
2022-09-26T18:11:43.795Z,96243.72
2022-09-26T18:14:15.135Z,96250.59
2022-09-26T18:16:46.523Z,96248.88
2022-09-26T18:19:13.221Z,96250.59
2022-09-26T18:21:42.535Z,96238.63
2022-09-26T18:24:18.623Z,96236.03
2022-09-26T18:26:50.710Z,96240.34
2022-09-26T18:29:26.460Z,96242.06
2022-09-26T18:31:53.267Z,96246.31
2022-09-26T18:34:20.511Z,96243.75
2022-09-26T18:36:48.068Z,96233.47
2022-09-26T18:39:14.693Z,96240.34
2022-09-26T18:41:41.327Z,96240.34
2022-09-26T18:44:10.460Z,96240.34
2022-09-26T18:46:37.768Z,96241.19
2022-09-26T18:49:06.351Z,96250.59
2022-09-26T18:51:33.024Z,96240.34
2022-09-26T18:54:01.585Z,96239.50
2022-09-26T18:56:46.918Z,96243.75
2022-09-26T18:59:14.738Z,96251.44
2022-09-26T19:01:42.677Z,96236.03
2022-09-26T19:04:16.022Z,96247.19
2022-09-26T19:06:43.427Z,96236.94
2022-09-26T19:09:13.042Z,96248.03
2022-09-26T19:11:39.585Z,96244.63
2022-09-26T19:14:14.965Z,96242.00
2022-09-26T19:16:45.334Z,96248.88
2022-09-26T19:19:12.011Z,96245.47
2022-09-26T19:21:41.904Z,96231.75
2022-09-26T19:24:27.221Z,96240.34
2022-09-26T19:26:55.572Z,96243.75
2022-09-26T19:29:35.416Z,96236.06
2022-09-26T19:32:02.710Z,96226.63
2022-09-26T19:34:32.571Z,96238.63
2022-09-26T19:37:01.293Z,96229.19
2022-09-26T19:39:27.826Z,96231.81
2022-09-26T19:41:54.352Z,96225.81
2022-09-26T19:44:20.848Z,96230.94
2022-09-26T19:46:47.466Z,96221.50
2022-09-26T19:49:16.692Z,96219.81
2022-09-26T19:51:43.243Z,96213.88
2022-09-26T19:54:15.698Z,96196.72
2022-09-26T19:56:43.148Z,96199.31
2022-09-26T19:59:13.862Z,96182.19
2022-09-26T20:01:43.401Z,96186.47
2022-09-26T20:04:16.570Z,96195.91
2022-09-26T20:06:43.523Z,96181.38
2022-09-26T20:09:18.073Z,96159.13
2022-09-26T20:11:44.883Z,96171.13
2022-09-26T20:14:23.763Z,96145.44
2022-09-26T20:17:11.009Z,96154.00
2022-09-26T20:19:38.921Z,96162.59
2022-09-26T20:22:07.381Z,96166.88
2022-09-26T20:24:35.620Z,96164.28
2022-09-26T20:27:03.085Z,96154.03
2022-09-26T20:29:29.619Z,96151.47
2022-09-26T20:31:56.208Z,96152.34
2022-09-26T20:34:22.781Z,96141.22
2022-09-26T20:36:50.042Z,96110.44
2022-09-26T20:39:19.554Z,96124.13
2022-09-26T20:41:46.085Z,96131.84
2022-09-26T20:44:15.470Z,96135.25
2022-09-26T20:46:52.623Z,96125.84
2022-09-26T20:49:25.711Z,96121.56
2022-09-26T20:51:52.235Z,96119.03
2022-09-26T20:54:32.165Z,96109.56
2022-09-26T20:56:58.823Z,96106.16
2022-09-26T20:59:25.645Z,96119.03
2022-09-26T21:01:52.963Z,96073.69
2022-09-26T21:04:20.263Z,96089.06
2022-09-26T21:06:46.831Z,96101.91
2022-09-26T21:09:18.715Z,96096.78
2022-09-26T21:11:48.940Z,96097.66
2022-09-26T21:14:16.516Z,96082.28
2022-09-26T21:16:47.850Z,96094.22
2022-09-26T21:19:24.168Z,96066.00
2022-09-26T21:21:51.359Z,96062.59
2022-09-26T21:24:25.895Z,96065.16
2022-09-26T21:26:52.405Z,96069.47
2022-09-26T21:29:19.102Z,96062.63
2022-09-26T21:31:48.469Z,96066.91
2022-09-26T21:34:22.286Z,96066.91
2022-09-26T21:36:49.207Z,96053.22
2022-09-26T21:39:16.820Z,96053.22
2022-09-26T21:41:43.699Z,96042.94
2022-09-26T21:44:30.968Z,96042.97
2022-09-26T21:46:57.500Z,96039.56
2022-09-26T21:49:24.604Z,96031.00
2022-09-26T21:51:54.011Z,96021.63
2022-09-26T21:54:33.384Z,96040.38
2022-09-26T21:57:25.616Z,96016.50
2022-09-26T21:59:52.131Z,96013.06
2022-09-26T22:02:18.680Z,96011.38
2022-09-26T22:04:45.266Z,96004.50
2022-09-26T22:07:11.773Z,96004.50
2022-09-26T22:09:38.311Z,96002.81
2022-09-26T22:12:04.876Z,95990.00
2022-09-26T22:14:31.735Z,95980.63
2022-09-26T22:16:59.043Z,95977.19
2022-09-26T22:19:27.346Z,95972.94
2022-09-26T22:21:54.636Z,95966.06
2022-09-26T22:24:21.134Z,95956.69
2022-09-26T22:26:47.758Z,95959.25
2022-09-26T22:29:14.428Z,95959.25
2022-09-26T22:31:41.769Z,95951.56
2022-09-26T22:34:08.381Z,95927.59
2022-09-26T22:36:34.938Z,95943.88
2022-09-26T22:39:01.574Z,95934.47
2022-09-26T22:41:28.103Z,95929.34
2022-09-26T22:43:54.681Z,95907.13
2022-09-26T22:46:21.587Z,95922.47
2022-09-26T22:48:48.884Z,95920.81
2022-09-26T22:51:15.976Z,95909.66
2022-09-26T22:53:42.846Z,95917.38
2022-09-26T22:56:13.055Z,95913.97
2022-09-26T22:58:44.457Z,95912.25
2022-09-26T23:01:12.695Z,95905.41
2022-09-26T23:03:39.372Z,95904.56
2022-09-26T23:06:06.261Z,95897.69
2022-09-26T23:08:33.555Z,95900.28
2022-09-26T23:11:01.121Z,95900.28
2022-09-26T23:13:28.334Z,95898.59
2022-09-26T23:15:55.073Z,95897.69
2022-09-26T23:18:21.777Z,95897.72
2022-09-26T23:20:48.280Z,95887.47
2022-09-26T23:23:14.839Z,95902.84
2022-09-26T23:25:48.380Z,95900.28
2022-09-26T23:28:15.217Z,95897.72
2022-09-26T23:30:42.221Z,95893.44
2022-09-26T23:33:09.064Z,95896.88
2022-09-26T23:35:35.607Z,95890.03
2022-09-26T23:38:05.025Z,95886.63
2022-09-26T23:40:32.362Z,95877.22
2022-09-26T23:42:59.114Z,95879.78
2022-09-26T23:45:26.799Z,95878.94
2022-09-26T23:47:53.435Z,95874.66
2022-09-26T23:50:19.998Z,95857.56
2022-09-26T23:52:46.548Z,95863.53
2022-09-26T23:55:13.942Z,95860.16
2022-09-26T23:57:40.794Z,95853.31
